Time;durP1;ratioP1;P1;durP2;ratioP2;P2;SDS_P1;SDS_P2;PMS_P1;PMS_P2;Temp;Humidity;BMP_temperature;BMP_pressure;BME280_temperature;BME280_humidity;BME280_pressure;Samples;Min_cycle;Max_cycle;Signal;HPM_P1;HPM_P2
2022/10/25 00:02:19;;;;;;;37.10;30.23;;;;;;;10.69;100.00;99892.67;1779018;80;21022;-71
2022/10/25 00:04:45;;;;;;;34.50;29.42;;;;;;;10.65;100.00;99895.02;1766345;80;21436;-70
2022/10/25 00:07:12;;;;;;;33.60;29.05;;;;;;;10.65;100.00;99891.50;1749479;80;21609;-83
2022/10/25 00:09:39;;;;;;;37.42;31.05;;;;;;;10.71;100.00;99881.11;1781272;80;21054;-80
2022/10/25 00:12:06;;;;;;;40.98;34.78;;;;;;;10.75;100.00;99879.55;1783558;80;21775;-81
2022/10/25 00:14:33;;;;;;;38.53;31.80;;;;;;;10.76;100.00;99875.28;1723298;81;20967;-77
2022/10/25 00:16:59;;;;;;;39.42;31.52;;;;;;;10.75;100.00;99866.11;1742237;82;21021;-77
2022/10/25 00:19:27;;;;;;;42.43;36.58;;;;;;;10.73;100.00;99866.90;1746343;78;20884;-77
2022/10/25 00:21:54;;;;;;;49.65;38.75;;;;;;;10.69;100.00;99867.93;1746482;77;20955;-75
2022/10/25 00:24:21;;;;;;;48.85;38.92;;;;;;;10.69;100.00;99865.24;1750819;77;21097;-77
2022/10/25 00:26:47;;;;;;;48.63;37.90;;;;;;;10.76;100.00;99863.18;1756585;80;20828;-73
2022/10/25 00:29:13;;;;;;;51.25;38.73;;;;;;;10.83;100.00;99854.42;1723820;82;20975;-76
2022/10/25 00:31:40;;;;;;;42.10;36.20;;;;;;;10.94;100.00;99859.39;1695382;83;20946;-73
2022/10/25 00:34:07;;;;;;;42.88;35.52;;;;;;;11.03;100.00;99851.73;1743092;81;22255;-71
2022/10/25 00:36:33;;;;;;;36.85;31.90;;;;;;;11.06;100.00;99852.56;1742446;81;21546;-71
2022/10/25 00:39:00;;;;;;;37.25;30.68;;;;;;;11.08;100.00;99851.23;1742091;82;21652;-73
2022/10/25 00:41:30;;;;;;;36.13;32.25;;;;;;;11.12;100.00;99847.02;1742182;82;21593;-72
2022/10/25 00:44:37;;;;;;;32.65;29.18;;;;;;;11.11;100.00;99841.86;1765773;81;20978;-75
2022/10/25 00:47:21;;;;;;;30.95;26.30;;;;;;;11.04;100.00;99839.88;1772637;81;21015;-68
2022/10/25 00:50:19;;;;;;;29.90;25.75;;;;;;;10.97;100.00;99836.56;1761577;81;21730;-72
2022/10/25 00:52:48;;;;;;;29.90;26.02;;;;;;;10.92;100.00;99841.34;1740789;82;21199;-68
2022/10/25 00:55:15;;;;;;;27.37;24.52;;;;;;;10.91;100.00;99845.09;1741930;82;21027;-67
2022/10/25 00:57:50;;;;;;;31.02;26.97;;;;;;;10.89;100.00;99841.30;1758893;81;21634;-67
2022/10/25 01:00:16;;;;;;;26.97;24.10;;;;;;;10.89;100.00;99845.86;1772688;81;21062;-82
2022/10/25 01:02:43;;;;;;;28.27;24.00;;;;;;;10.88;100.00;99845.60;1769985;81;21860;-74
2022/10/25 01:05:11;;;;;;;28.67;22.52;;;;;;;10.88;100.00;99842.91;1771213;81;21049;-73
2022/10/25 01:07:39;;;;;;;28.57;21.50;;;;;;;11.01;100.00;99839.04;1757559;81;21503;-81
2022/10/25 01:10:07;;;;;;;23.15;20.50;;;;;;;11.14;100.00;99823.86;1745573;81;21564;-77
2022/10/25 01:12:34;;;;;;;27.22;22.90;;;;;;;11.26;100.00;99830.77;1726688;81;21723;-76
2022/10/25 01:15:00;;;;;;;21.05;18.80;;;;;;;11.36;100.00;99822.00;1750012;82;21165;-76
2022/10/25 01:17:44;;;;;;;22.67;20.17;;;;;;;11.45;100.00;99816.44;1760388;80;20996;-77
2022/10/25 01:20:36;;;;;;;23.20;19.85;;;;;;;11.43;100.00;99813.17;1781177;80;21075;-77
2022/10/25 01:23:18;;;;;;;24.25;21.65;;;;;;;11.32;100.00;99810.08;1781258;80;21096;-78
2022/10/25 01:26:03;;;;;;;23.57;20.32;;;;;;;11.20;100.00;99801.33;1781171;80;20984;-78
2022/10/25 01:29:03;;;;;;;21.75;18.45;;;;;;;11.10;100.00;99799.86;1690804;83;21407;-78
2022/10/25 01:31:59;;;;;;;22.67;20.27;;;;;;;11.05;100.00;99790.38;1710064;80;21780;-78
2022/10/25 01:34:30;;;;;;;19.73;17.50;;;;;;;11.06;100.00;99798.73;1763506;80;21129;-78
2022/10/25 01:37:17;;;;;;;25.17;22.25;;;;;;;11.09;100.00;99795.53;1756228;80;21065;-79
2022/10/25 01:40:10;;;;;;;27.90;21.97;;;;;;;11.11;100.00;99794.77;1750576;82;21100;-78
2022/10/25 01:42:41;;;;;;;;;;;;;;;11.23;100.00;99791.39;1754340;80;21088;-76
2022/10/25 01:45:17;;;;;;;22.35;19.87;;;;;;;11.28;100.00;99795.49;1748607;80;20215;-79
2022/10/25 01:47:56;;;;;;;24.40;20.88;;;;;;;11.25;100.00;99792.78;1779968;80;21020;-77
2022/10/25 01:50:29;;;;;;;24.75;21.42;;;;;;;11.28;100.00;99794.15;1781173;80;21102;-78
2022/10/25 01:52:55;;;;;;;22.17;19.77;;;;;;;11.33;100.00;99795.55;1779939;80;21059;-77
2022/10/25 01:55:30;;;;;;;23.52;20.88;;;;;;;11.27;100.00;99791.20;1757696;80;20987;-76
2022/10/25 01:58:40;;;;;;;19.62;17.55;;;;;;;11.29;100.00;99785.01;1759125;80;20977;-76
2022/10/25 02:01:36;;;;;;;21.65;19.35;;;;;;;11.31;100.00;99783.71;1781530;80;20996;-77
2022/10/25 02:04:28;;;;;;;25.08;20.50;;;;;;;11.21;100.00;99786.28;1752526;80;21052;-75
2022/10/25 02:07:05;;;;;;;30.40;21.60;;;;;;;11.11;100.00;99792.89;1750626;80;22475;-73
2022/10/25 02:09:38;;;;;;;23.20;19.60;;;;;;;11.13;100.00;99781.32;1749946;81;21231;-77
2022/10/25 02:12:06;;;;;;;21.07;18.87;;;;;;;11.18;100.00;99782.73;1749542;81;21056;-74
2022/10/25 02:14:37;;;;;;;21.42;19.20;;;;;;;11.15;100.00;99777.04;1776728;80;20953;-75
2022/10/25 02:17:17;;;;;;;23.12;20.72;;;;;;;11.14;100.00;99780.26;1762878;80;21113;-75
2022/10/25 02:19:49;;;;;;;24.63;21.93;;;;;;;11.11;100.00;99777.27;1765757;80;21040;-75
2022/10/25 02:22:16;;;;;;;24.37;19.80;;;;;;;11.03;100.00;99781.19;1780650;80;21356;-75
2022/10/25 02:24:44;;;;;;;23.50;20.85;;;;;;;11.04;100.00;99783.36;1781125;80;21067;-77
2022/10/25 02:27:11;;;;;;;23.62;21.12;;;;;;;11.00;100.00;99774.16;1774420;80;22428;-77
2022/10/25 02:29:38;;;;;;;24.65;22.00;;;;;;;11.03;100.00;99779.06;1764905;80;21560;-79
2022/10/25 02:32:04;;;;;;;25.97;23.25;;;;;;;11.10;100.00;99775.62;1779973;80;21032;-77
2022/10/25 02:34:31;;;;;;;28.15;22.27;;;;;;;11.15;100.00;99771.66;1781528;80;21470;-77
2022/10/25 02:37:00;;;;;;;27.32;22.62;;;;;;;11.20;100.00;99766.33;1774304;80;21119;-76
2022/10/25 02:39:27;;;;;;;23.83;21.10;;;;;;;11.20;100.00;99769.84;1750729;81;21020;-77
2022/10/25 02:41:54;;;;;;;26.97;21.23;;;;;;;11.16;100.00;99761.99;1757065;80;21088;-78
2022/10/25 02:44:20;;;;;;;25.72;21.35;;;;;;;11.15;100.00;99768.96;1780617;80;21013;-75
2022/10/25 02:46:47;;;;;;;24.50;18.90;;;;;;;11.15;100.00;99778.38;1773838;80;21096;-78
2022/10/25 02:49:15;;;;;;;21.82;19.50;;;;;;;11.08;100.00;99781.25;1750328;82;21049;-77
2022/10/25 02:51:41;;;;;;;26.57;21.82;;;;;;;10.90;100.00;99792.33;1757283;80;21080;-77
2022/10/25 02:54:07;;;;;;;24.80;21.50;;;;;;;10.77;100.00;99781.95;1781262;80;21024;-76
2022/10/25 02:56:36;;;;;;;21.95;19.65;;;;;;;10.77;100.00;99792.70;1780166;80;21056;-77
2022/10/25 02:59:02;;;;;;;29.77;21.85;;;;;;;10.77;100.00;99788.67;1756606;80;21237;-77
2022/10/25 03:01:29;;;;;;;25.12;22.58;;;;;;;10.73;100.00;99788.89;1754538;80;21068;-76
2022/10/25 03:03:55;;;;;;;25.68;22.15;;;;;;;10.64;100.00;99786.34;1781366;80;21556;-77
2022/10/25 03:06:22;;;;;;;27.67;22.90;;;;;;;10.57;100.00;99781.66;1780810;80;21094;-77
2022/10/25 03:08:49;;;;;;;26.00;21.60;;;;;;;10.57;100.00;99786.51;1750488;80;21037;-75
2022/10/25 03:11:17;;;;;;;24.90;21.75;;;;;;;10.61;100.00;99788.16;1772087;80;21530;-75
2022/10/25 03:13:43;;;;;;;26.17;23.38;;;;;;;10.66;100.00;99787.70;1775466;80;21020;-75
2022/10/25 03:16:11;;;;;;;23.42;20.57;;;;;;;10.71;100.00;99786.44;1781068;80;20988;-75
2022/10/25 03:18:39;;;;;;;24.10;20.88;;;;;;;10.72;100.00;99790.77;1777133;80;20957;-75
2022/10/25 03:21:07;;;;;;;24.67;22.07;;;;;;;10.65;100.00;99786.60;1759201;80;21096;-75
2022/10/25 03:23:33;;;;;;;23.50;20.02;;;;;;;10.57;100.00;99780.31;1750570;80;21145;-75
2022/10/25 03:26:01;;;;;;;26.35;23.60;;;;;;;10.47;100.00;99787.17;1775232;80;21106;-75
2022/10/25 03:28:28;;;;;;;32.83;24.95;;;;;;;10.37;100.00;99784.86;1762412;80;21502;-75
2022/10/25 03:30:57;;;;;;;33.48;26.17;;;;;;;10.29;100.00;99790.13;1781160;80;20984;-75
2022/10/25 03:33:24;;;;;;;27.95;24.95;;;;;;;10.29;100.00;99793.34;1779547;80;21032;-74
2022/10/25 03:35:52;;;;;;;30.08;23.02;;;;;;;10.36;100.00;99788.63;1727140;82;21238;-74
2022/10/25 03:38:19;;;;;;;24.90;22.17;;;;;;;10.46;100.00;99788.75;1778720;80;20969;-75
2022/10/25 03:40:46;;;;;;;27.48;24.43;;;;;;;10.56;100.00;99786.74;1757645;80;21108;-75
2022/10/25 03:43:12;;;;;;;26.90;24.05;;;;;;;10.55;100.00;99787.83;1771266;80;21025;-76
2022/10/25 03:45:39;;;;;;;26.10;23.30;;;;;;;10.48;100.00;99781.27;1779127;80;20984;-74
2022/10/25 03:48:07;;;;;;;25.65;21.87;;;;;;;10.50;100.00;99777.81;1781919;80;20938;-75
2022/10/25 03:50:39;;;;;;;22.67;20.25;;;;;;;10.54;100.00;99784.85;1781168;80;21000;-73
2022/10/25 03:53:03;;;;;;;26.10;23.30;;;;;;;10.49;100.00;99777.00;1780802;80;21018;-74
2022/10/25 03:55:32;;;;;;;27.05;24.25;;;;;;;10.43;100.00;99775.81;1773708;80;21550;-75
2022/10/25 03:57:58;;;;;;;24.70;21.45;;;;;;;10.44;100.00;99772.89;1773444;80;21699;-81
2022/10/25 04:00:25;;;;;;;24.95;22.00;;;;;;;10.48;100.00;99771.33;1753229;80;21111;-78
2022/10/25 04:02:57;;;;;;;31.45;23.45;;;;;;;10.53;100.00;99770.59;1753626;80;21557;-77
2022/10/25 04:05:23;;;;;;;25.95;22.02;;;;;;;10.62;100.00;99775.82;1754838;80;21029;-81
2022/10/25 04:07:51;;;;;;;26.97;22.80;;;;;;;10.73;100.00;99764.15;1750400;82;21349;-79
2022/10/25 04:10:20;;;;;;;24.87;22.17;;;;;;;10.81;100.00;99769.62;1750636;80;21052;-76
2022/10/25 04:12:48;;;;;;;23.05;20.60;;;;;;;10.81;100.00;99762.36;1753000;80;20957;-75
2022/10/25 04:15:16;;;;;;;22.95;20.10;;;;;;;10.82;100.00;99753.23;1750813;80;21021;-75
2022/10/25 04:17:43;;;;;;;27.67;23.83;;;;;;;10.78;100.00;99756.67;1750505;81;21029;-79
2022/10/25 04:20:11;;;;;;;26.30;23.50;;;;;;;10.71;100.00;99763.57;1764356;80;21052;-78
2022/10/25 04:22:38;;;;;;;27.15;24.35;;;;;;;10.77;100.00;99753.70;1728939;81;21031;-76
2022/10/25 04:25:06;;;;;;;26.15;23.42;;;;;;;10.83;100.00;99753.52;1739686;81;21076;-76
2022/10/25 04:27:33;;;;;;;25.17;22.48;;;;;;;10.95;100.00;99753.38;1789302;79;21625;-76
2022/10/25 04:29:59;;;;;;;26.70;23.85;;;;;;;11.02;100.00;99751.86;1761765;79;21065;-76
2022/10/25 04:32:26;;;;;;;25.90;23.12;;;;;;;11.02;100.00;99742.44;1741770;79;21081;-74
2022/10/25 04:34:53;;;;;;;20.65;18.42;;;;;;;11.04;100.00;99738.95;1776250;80;21042;-75
2022/10/25 04:37:19;;;;;;;24.65;21.20;;;;;;;11.01;100.00;99743.50;1793583;79;21316;-75
2022/10/25 04:39:47;;;;;;;28.73;22.82;;;;;;;10.96;100.00;99745.59;1771547;80;21022;-76
2022/10/25 04:42:13;;;;;;;22.65;20.10;;;;;;;10.94;100.00;99748.53;1745368;81;21684;-76
2022/10/25 04:44:41;;;;;;;23.12;20.80;;;;;;;10.98;100.00;99744.83;1803620;78;20956;-76
2022/10/25 04:47:07;;;;;;;25.23;22.35;;;;;;;11.05;100.00;99742.74;1798278;78;21022;-75
2022/10/25 04:49:34;;;;;;;23.77;21.27;;;;;;;11.06;100.00;99740.34;1764096;80;21393;-75
2022/10/25 04:52:02;;;;;;;29.23;22.73;;;;;;;11.02;100.00;99737.88;1793237;80;21001;-76
2022/10/25 04:54:28;;;;;;;26.20;23.18;;;;;;;10.94;100.00;99743.67;1761729;81;21314;-75
2022/10/25 04:56:55;;;;;;;23.40;20.23;;;;;;;10.88;100.00;99734.75;1773068;80;20959;-76
2022/10/25 04:59:21;;;;;;;23.22;20.68;;;;;;;10.88;100.00;99736.09;1762893;80;21089;-76
2022/10/25 05:01:48;;;;;;;18.87;16.85;;;;;;;10.86;100.00;99732.83;1792243;80;21253;-77
2022/10/25 05:04:14;;;;;;;23.20;19.65;;;;;;;10.89;100.00;99728.28;1788432;80;21089;-78
2022/10/25 05:06:42;;;;;;;25.90;21.07;;;;;;;10.89;100.00;99735.01;1767414;80;20998;-76
2022/10/25 05:09:09;;;;;;;26.27;20.75;;;;;;;10.97;100.00;99732.95;1788214;80;21022;-75
2022/10/25 05:11:36;;;;;;;21.97;18.73;;;;;;;10.98;100.00;99727.33;1792069;80;21047;-74
2022/10/25 05:14:02;;;;;;;27.70;23.25;;;;;;;10.94;100.00;99733.73;1776223;80;21239;-77
2022/10/25 05:16:33;;;;;;;23.25;20.12;;;;;;;10.94;100.00;99732.38;1788182;80;20975;-78
2022/10/25 05:19:00;;;;;;;23.57;21.10;;;;;;;11.00;100.00;99737.83;1765923;80;20954;-74
2022/10/25 05:21:29;;;;;;;23.38;21.07;;;;;;;11.00;100.00;99741.34;1762132;81;21101;-75
2022/10/25 05:23:57;;;;;;;24.75;21.95;;;;;;;10.98;100.00;99735.41;1765694;80;22207;-75
2022/10/25 05:26:25;;;;;;;27.87;23.32;;;;;;;10.94;100.00;99740.98;1785345;79;22151;-79
2022/10/25 05:28:53;;;;;;;23.18;20.82;;;;;;;10.95;100.00;99737.23;1765540;80;21021;-78
2022/10/25 05:31:26;;;;;;;26.85;21.35;;;;;;;10.99;100.00;99739.70;1769415;80;21019;-78
2022/10/25 05:33:57;;;;;;;23.77;19.82;;;;;;;11.00;100.00;99744.02;1783178;80;21042;-77
2022/10/25 05:36:24;;;;;;;29.85;22.52;;;;;;;11.03;100.00;99729.27;1768913;80;21062;-75
2022/10/25 05:38:51;;;;;;;21.55;18.77;;;;;;;11.10;100.00;99735.25;1777445;80;21262;-73
2022/10/25 05:41:17;;;;;;;27.77;24.80;;;;;;;11.14;100.00;99735.84;1788866;80;21019;-77
2022/10/25 05:43:44;;;;;;;23.73;20.92;;;;;;;11.16;100.00;99743.15;1764082;80;21024;-74
2022/10/25 05:46:14;;;;;;;27.60;22.45;;;;;;;11.22;100.00;99739.98;1767284;80;21606;-75
2022/10/25 05:48:41;;;;;;;26.07;22.50;;;;;;;11.20;100.00;99739.41;1776286;80;21653;-76
2022/10/25 05:51:13;;;;;;;30.95;21.23;;;;;;;11.20;100.00;99743.45;1763279;80;21041;-74
2022/10/25 05:53:46;;;;;;;22.32;20.02;;;;;;;11.19;100.00;99745.33;1761762;80;21131;-75
2022/10/25 05:56:13;;;;;;;23.50;21.07;;;;;;;11.18;100.00;99743.69;1786642;80;21013;-76
2022/10/25 05:58:40;;;;;;;22.58;20.27;;;;;;;11.21;100.00;99745.08;1781513;80;20982;-76
2022/10/25 06:01:12;;;;;;;23.50;20.85;;;;;;;11.25;100.00;99747.02;1761949;81;21128;-75
2022/10/25 06:03:39;;;;;;;25.40;22.53;;;;;;;11.32;100.00;99750.84;1764572;80;21415;-76
2022/10/25 06:06:08;;;;;;;23.83;18.55;;;;;;;11.35;100.00;99746.31;1762180;80;20970;-73
2022/10/25 06:08:36;;;;;;;25.10;22.20;;;;;;;11.32;100.00;99736.84;1774966;80;20982;-77
2022/10/25 06:11:05;;;;;;;25.85;21.45;;;;;;;11.26;100.00;99743.80;1774989;80;20970;-76
2022/10/25 06:13:32;;;;;;;23.55;20.90;;;;;;;11.28;100.00;99740.30;1767767;80;21046;-76
2022/10/25 06:16:06;;;;;;;23.32;20.50;;;;;;;11.31;100.00;99739.28;1763169;80;21027;-75
2022/10/25 06:18:33;;;;;;;24.20;21.35;;;;;;;11.35;100.00;99743.62;1775245;80;21034;-77
2022/10/25 06:21:04;;;;;;;25.77;20.97;;;;;;;11.40;100.00;99741.51;1769197;80;21085;-76
2022/10/25 06:23:30;;;;;;;21.27;18.57;;;;;;;11.48;100.00;99751.81;1763523;80;22176;-75
2022/10/25 06:26:02;;;;;;;27.95;22.52;;;;;;;11.53;100.00;99751.88;1766121;80;21031;-75
2022/10/25 06:28:29;;;;;;;25.72;21.75;;;;;;;11.50;100.00;99750.52;1782380;80;21228;-78
2022/10/25 06:31:05;;;;;;;26.80;20.57;;;;;;;11.48;100.00;99751.81;1765252;80;21054;-76
2022/10/25 06:33:32;;;;;;;22.10;19.02;;;;;;;11.41;100.00;99759.30;1780572;80;21010;-75
2022/10/25 06:36:01;;;;;;;23.70;20.30;;;;;;;11.36;100.00;99763.58;1770770;80;21010;-75
2022/10/25 06:38:29;;;;;;;22.20;19.42;;;;;;;11.33;100.00;99758.67;1781154;80;21124;-75
2022/10/25 06:41:00;;;;;;;26.93;22.37;;;;;;;11.32;100.00;99756.22;1763453;80;21286;-75
2022/10/25 06:43:27;;;;;;;25.82;23.18;;;;;;;11.32;100.00;99750.30;1762176;80;20970;-78
2022/10/25 06:45:54;;;;;;;22.17;19.87;;;;;;;11.38;100.00;99743.91;1790396;80;21037;-76
2022/10/25 06:48:22;;;;;;;28.67;21.48;;;;;;;11.49;100.00;99744.84;1782742;79;21606;-75
2022/10/25 06:51:02;;;;;;;25.77;23.02;;;;;;;11.57;100.00;99740.33;1772820;79;21007;-75
2022/10/25 06:53:28;;;;;;;25.05;21.97;;;;;;;11.63;100.00;99738.50;1738530;80;21495;-74
2022/10/25 06:56:01;;;;;;;41.08;24.50;;;;;;;11.74;100.00;99735.69;1762615;81;20975;-74
2022/10/25 06:58:29;;;;;;;28.02;22.27;;;;;;;11.80;100.00;99735.98;1775909;80;20931;-75
2022/10/25 07:01:05;;;;;;;27.70;21.85;;;;;;;11.88;100.00;99745.50;1716890;81;30566;-74
2022/10/25 07:03:35;;;;;;;26.77;22.07;;;;;;;11.96;100.00;99737.47;1726974;82;21086;-75
2022/10/25 07:06:06;;;;;;;28.98;23.87;;;;;;;11.99;100.00;99738.32;1730005;82;21436;-76
2022/10/25 07:08:34;;;;;;;26.43;23.63;;;;;;;11.98;100.00;99738.03;1723890;82;21089;-78
2022/10/25 07:11:05;;;;;;;33.67;24.72;;;;;;;11.96;100.00;99735.59;1686449;83;21033;-77
2022/10/25 07:13:32;;;;;;;26.97;22.30;;;;;;;11.94;100.00;99729.63;1672501;83;21102;-76
2022/10/25 07:16:03;;;;;;;26.00;21.97;;;;;;;12.00;100.00;99729.14;1720526;81;20982;-73
2022/10/25 07:18:32;;;;;;;26.85;23.95;;;;;;;12.02;100.00;99727.01;1721819;82;21055;-76
2022/10/25 07:21:05;;;;;;;24.10;21.40;;;;;;;12.03;100.00;99728.64;1721257;82;21034;-76
2022/10/25 07:23:32;;;;;;;28.05;22.40;;;;;;;12.05;100.00;99730.52;1688172;83;21053;-76
2022/10/25 07:26:00;;;;;;;27.13;23.27;;;;;;;12.12;100.00;99723.86;1711240;83;21011;-76
2022/10/25 07:28:28;;;;;;;28.57;25.48;;;;;;;12.24;100.00;99720.95;1719805;83;21568;-78
2022/10/25 07:30:55;;;;;;;32.98;25.32;;;;;;;12.33;100.00;99722.09;1706283;83;21249;-74
2022/10/25 07:33:24;;;;;;;27.37;23.92;;;;;;;12.40;100.00;99715.12;1709175;83;21016;-75
2022/10/25 07:35:51;;;;;;;32.23;23.77;;;;;;;12.48;100.00;99712.73;1719693;83;20983;-75
2022/10/25 07:38:19;;;;;;;25.10;21.93;;;;;;;12.54;100.00;99717.63;1711784;82;20948;-80
2022/10/25 07:40:48;;;;;;;23.20;19.30;;;;;;;12.65;100.00;99723.37;1675670;83;21102;-75
2022/10/25 07:43:17;;;;;;;26.52;19.70;;;;;;;12.78;100.00;99722.06;1677289;83;21767;-77
2022/10/25 07:45:45;;;;;;;27.77;21.93;;;;;;;12.87;100.00;99720.48;1726601;83;21489;-74
2022/10/25 07:48:12;;;;;;;28.52;22.90;;;;;;;12.95;100.00;99722.70;1725516;83;21677;-75
2022/10/25 07:50:39;;;;;;;24.60;22.07;;;;;;;12.99;100.00;99722.43;1719938;83;21042;-74
2022/10/25 07:53:06;;;;;;;25.35;20.70;;;;;;;12.98;100.00;99712.70;1713316;82;21401;-79
2022/10/25 07:55:32;;;;;;;22.22;19.92;;;;;;;13.01;100.00;99714.33;1709898;79;21135;-80
2022/10/25 07:58:01;;;;;;;25.37;22.17;;;;;;;13.04;100.00;99715.13;1733644;79;21161;-80
2022/10/25 08:00:27;;;;;;;25.45;21.90;;;;;;;13.09;100.00;99711.10;1710948;80;21598;-76
2022/10/25 08:02:55;;;;;;;26.00;22.70;;;;;;;13.19;100.00;99707.66;1714986;83;22404;-76
2022/10/25 08:05:22;;;;;;;25.90;22.27;;;;;;;13.30;100.00;99705.79;1697869;83;21047;-75
2022/10/25 08:07:49;;;;;;;24.15;21.48;;;;;;;13.32;100.00;99704.47;1722816;82;21157;-76
2022/10/25 08:10:21;;;;;;;32.08;22.40;;;;;;;13.37;100.00;99698.25;1725149;82;20987;-74
2022/10/25 08:12:53;;;;;;;24.27;20.25;;;;;;;13.43;100.00;99691.22;1700636;84;26959;-75
2022/10/25 08:15:20;;;;;;;24.20;21.73;;;;;;;13.48;100.00;99699.88;1676703;84;21090;-77
2022/10/25 08:17:46;;;;;;;30.20;22.65;;;;;;;13.54;100.00;99695.56;1699032;84;21077;-77
2022/10/25 08:20:15;;;;;;;25.45;21.55;;;;;;;13.62;100.00;99692.08;1700470;84;22234;-76
2022/10/25 08:22:41;;;;;;;23.30;21.00;;;;;;;13.71;99.66;99686.40;1653760;84;21045;-75
2022/10/25 08:25:10;;;;;;;24.12;21.57;;;;;;;13.74;99.21;99689.36;1701702;82;20958;-78
2022/10/25 08:27:37;;;;;;;31.45;22.40;;;;;;;13.73;98.74;99690.44;1712959;82;21012;-76
2022/10/25 08:30:05;;;;;;;31.00;22.62;;;;;;;13.76;98.65;99686.40;1648469;84;21606;-78
2022/10/25 08:32:34;;;;;;;37.38;28.27;;;;;;;13.78;98.51;99685.56;1695192;84;21222;-76
2022/10/25 08:35:02;;;;;;;25.48;22.77;;;;;;;13.81;98.46;99685.83;1697935;82;21084;-78
2022/10/25 08:37:30;;;;;;;35.75;29.77;;;;;;;13.87;98.47;99686.64;1698811;83;20967;-74
2022/10/25 08:39:57;;;;;;;32.90;29.40;;;;;;;13.96;98.57;99678.25;1729346;82;21109;-79
2022/10/25 08:43:15;;;;;;;34.58;30.30;;;;;;;14.06;98.38;99676.89;1700571;84;20990;-78
2022/10/25 08:46:03;;;;;;;40.63;29.07;;;;;;;14.15;97.94;99678.52;1700763;84;21112;-78
2022/10/25 08:48:35;;;;;;;31.48;27.77;;;;;;;14.25;97.82;99675.77;1700157;84;21043;-77
2022/10/25 08:51:13;;;;;;;27.50;23.22;;;;;;;14.41;97.88;99678.75;1700634;84;20982;-76
2022/10/25 08:53:44;;;;;;;26.50;23.80;;;;;;;14.58;97.30;99677.09;1699758;84;21407;-79
2022/10/25 08:56:15;;;;;;;28.90;25.75;;;;;;;14.65;95.85;99677.59;1718081;82;21051;-78
2022/10/25 08:58:56;;;;;;;36.58;24.20;;;;;;;14.68;94.95;99672.42;1700646;83;21139;-78
2022/10/25 09:01:43;;;;;;;30.85;22.80;;;;;;;14.70;94.25;99675.67;1703186;82;21185;-78
2022/10/25 09:04:36;;;;;;;27.77;21.35;;;;;;;14.67;94.16;99673.53;1726283;81;21083;-73
2022/10/25 09:07:40;;;;;;;32.00;22.87;;;;;;;14.74;93.92;99667.80;1701902;82;21079;-76
2022/10/25 09:10:34;;;;;;;30.15;26.00;;;;;;;14.79;93.40;99674.00;1703364;83;21082;-77
2022/10/25 09:13:25;;;;;;;31.97;26.10;;;;;;;14.87;93.38;99670.47;1700468;84;21255;-73
2022/10/25 09:16:01;;;;;;;40.08;25.88;;;;;;;14.98;92.75;99675.54;1718892;83;21003;-78
2022/10/25 09:18:40;;;;;;;34.98;24.70;;;;;;;15.05;92.04;99670.64;1708026;83;21003;-74
2022/10/25 09:21:18;;;;;;;23.83;19.95;;;;;;;15.11;91.32;99665.98;1717719;83;21098;-77
2022/10/25 09:23:56;;;;;;;28.75;20.37;;;;;;;15.11;90.39;99663.27;1729724;83;21565;-77
2022/10/25 09:26:42;;;;;;;24.65;18.02;;;;;;;15.08;89.47;99660.59;1725665;83;21229;-78
2022/10/25 09:29:35;;;;;;;23.25;17.32;;;;;;;15.08;89.26;99665.19;1726210;81;21047;-74
2022/10/25 09:32:08;;;;;;;18.35;15.30;;;;;;;15.16;88.94;99659.17;1696915;83;21094;-75
2022/10/25 09:34:36;;;;;;;21.57;16.10;;;;;;;15.25;87.43;99662.94;1713641;82;21114;-73
2022/10/25 09:37:14;;;;;;;32.70;14.63;;;;;;;15.25;86.43;99655.59;1729538;83;21094;-75
2022/10/25 09:39:48;;;;;;;18.23;13.10;;;;;;;15.22;85.24;99655.34;1722081;82;21093;-72
2022/10/25 09:42:25;;;;;;;13.72;12.23;;;;;;;15.18;84.42;99655.65;1726198;83;21102;-75
2022/10/25 09:44:59;;;;;;;13.03;11.70;;;;;;;15.17;83.78;99649.42;1713574;82;21054;-79
2022/10/25 09:47:49;;;;;;;14.07;12.43;;;;;;;15.17;82.88;99643.19;1684889;83;21118;-72
2022/10/25 09:50:33;;;;;;;14.00;12.60;;;;;;;15.11;82.10;99642.41;1724445;82;21499;-87
2022/10/25 09:53:10;;;;;;;14.80;12.00;;;;;;;15.04;82.11;99641.92;1706145;83;21163;-89
2022/10/25 09:55:59;;;;;;;15.70;13.68;;;;;;;15.00;81.84;99643.58;1730309;82;21038;-73
2022/10/25 09:58:31;;;;;;;13.10;11.68;;;;;;;14.98;81.80;99644.93;1720254;81;20991;-73
2022/10/25 10:01:22;;;;;;;14.28;12.37;;;;;;;14.94;82.00;99646.05;1714712;83;21054;-77
2022/10/25 10:03:49;;;;;;;15.50;10.93;;;;;;;14.93;82.17;99643.61;1727234;83;21122;-72
2022/10/25 10:06:24;;;;;;;14.30;12.18;;;;;;;14.96;82.28;99643.87;1729188;82;22040;-73
2022/10/25 10:09:01;;;;;;;16.82;12.15;;;;;;;14.99;82.11;99646.55;1717990;82;21035;-73
2022/10/25 10:11:28;;;;;;;18.27;11.78;;;;;;;14.95;81.75;99648.20;1728996;82;20966;-75
2022/10/25 10:14:30;;;;;;;17.15;12.35;;;;;;;14.89;82.09;99644.72;1729404;83;20963;-73
2022/10/25 10:16:58;;;;;;;;;;;;;;;14.86;82.09;99649.89;1700306;83;21667;-70
2022/10/25 10:19:28;;;;;;;18.35;12.25;;;;;;;14.82;82.78;99649.06;1680672;83;21867;-71
2022/10/25 10:22:03;;;;;;;15.72;12.98;;;;;;;14.87;82.92;99642.81;1680536;85;20962;-72
2022/10/25 10:24:35;;;;;;;14.40;12.20;;;;;;;14.90;82.55;99643.63;1679156;85;21061;-71
2022/10/25 10:27:15;;;;;;;17.32;14.55;;;;;;;14.92;82.71;99641.98;1722094;82;21128;-71
2022/10/25 10:30:03;;;;;;;16.95;14.53;;;;;;;14.90;82.51;99643.63;1708526;83;21090;-71
2022/10/25 10:32:38;;;;;;;18.20;12.73;;;;;;;14.87;82.85;99646.88;1726972;83;21092;-71
2022/10/25 10:35:27;;;;;;;16.37;13.05;;;;;;;14.87;83.20;99643.39;1699757;83;21007;-75
2022/10/25 10:38:22;;;;;;;16.73;13.05;;;;;;;14.89;83.35;99640.66;1716750;82;20988;-71
2022/10/25 10:41:24;;;;;;;16.80;13.85;;;;;;;14.89;83.32;99642.55;1723433;81;22336;-70
2022/10/25 10:43:54;;;;;;;15.63;13.28;;;;;;;14.87;83.76;99634.69;1730250;82;21054;-71
2022/10/25 10:46:23;;;;;;;20.43;15.15;;;;;;;14.85;83.98;99635.53;1690756;83;21846;-74
2022/10/25 10:48:54;;;;;;;19.32;14.23;;;;;;;14.81;84.13;99641.25;1701106;82;20962;-75
2022/10/25 10:51:37;;;;;;;24.45;14.15;;;;;;;14.78;84.55;99634.47;1690446;83;20998;-76
2022/10/25 10:54:25;;;;;;;18.35;16.32;;;;;;;14.80;84.60;99630.14;1702403;83;21019;-76
2022/10/25 10:57:03;;;;;;;14.55;12.70;;;;;;;14.79;84.97;99627.97;1711739;83;21109;-73
2022/10/25 10:59:39;;;;;;;15.05;13.40;;;;;;;14.83;84.99;99630.92;1706092;83;21013;-75
2022/10/25 11:02:27;;;;;;;13.58;12.15;;;;;;;14.79;84.96;99624.45;1682069;83;20994;-75
2022/10/25 11:04:54;;;;;;;17.57;13.22;;;;;;;14.77;85.13;99623.94;1711458;82;20974;-74
2022/10/25 11:07:33;;;;;;;17.27;12.58;;;;;;;14.75;85.35;99627.45;1712668;83;20962;-73
2022/10/25 11:10:19;;;;;;;19.23;14.40;;;;;;;14.77;85.61;99625.30;1709639;83;21558;-74
2022/10/25 11:13:03;;;;;;;20.43;17.10;;;;;;;14.75;85.76;99622.05;1712793;83;21082;-74
2022/10/25 11:15:34;;;;;;;18.05;13.50;;;;;;;14.73;85.96;99614.73;1677512;85;21127;-75
2022/10/25 11:18:03;;;;;;;20.27;14.60;;;;;;;14.72;86.19;99615.27;1686932;83;21846;-72
2022/10/25 11:20:37;;;;;;;21.37;14.47;;;;;;;14.68;86.30;99612.05;1711451;82;21677;-72
2022/10/25 11:23:40;;;;;;;17.95;13.70;;;;;;;14.65;86.53;99609.91;1734091;82;21058;-73
2022/10/25 11:26:21;;;;;;;17.42;14.28;;;;;;;14.64;86.69;99609.09;1725273;82;21394;-74
2022/10/25 11:29:14;;;;;;;15.40;13.15;;;;;;;14.66;86.85;99606.94;1732179;82;21041;-74
2022/10/25 11:32:18;;;;;;;20.00;14.07;;;;;;;14.68;86.94;99603.39;1734787;81;21042;-74
2022/10/25 11:34:57;;;;;;;;;;;;;;;14.71;86.96;99602.85;1710681;82;21531;-74
2022/10/25 11:37:50;;;;;;;19.10;13.85;;;;;;;14.75;87.09;99601.20;1685382;83;20137;-86